Allensburg, Ohio
Current Conditions -  °F | °C
As of 3:54 AM on Wednesday 22 Oct 2014 (Local Time) from KILN Reporting Station
Overcast Overcast  
Wind Chill: 38°   Ceiling: 1400
Heat Index: 44°   Visibility: 10mi
Dew Point: 38°   Wind: 13mph
Humidity: 79%   Direction: 350°N
Pressure: 30.17"   Gusts: NA
Location:  39.1546°N, 83.569°W
Report Text: KILN 220754Z AUTO 35011KT 10SM OVC014 07/03 A3017 RMK AO2 SLP230 T00670033
Loading
Personal Weather Stations






























Interactive Weather Map
Tropical Storm Tracking
New forecast layout! Learn more

10-Day Weather Forecast

Advertisements
Track Severe Weather on mobile